sensor_id;sensor_type;location;lat;lon;timestamp;pressure;altitude;pressure_sealevel;temperature;humidity
59274;BME280;45044;41.572;24.730;2023-04-09T00:00:45;91492.69;;;3.02;100.00
59274;BME280;45044;41.572;24.730;2023-04-09T00:03:12;91493.00;;;3.00;100.00
59274;BME280;45044;41.572;24.730;2023-04-09T00:05:40;91496.59;;;3.08;100.00
59274;BME280;45044;41.572;24.730;2023-04-09T00:08:07;91493.97;;;2.95;100.00
59274;BME280;45044;41.572;24.730;2023-04-09T00:10:34;91468.63;;;2.58;100.00
59274;BME280;45044;41.572;24.730;2023-04-09T00:13:01;91499.78;;;2.80;100.00
59274;BME280;45044;41.572;24.730;2023-04-09T00:15:27;91488.50;;;2.75;100.00
59274;BME280;45044;41.572;24.730;2023-04-09T00:17:58;91481.25;;;2.69;100.00
59274;BME280;45044;41.572;24.730;2023-04-09T00:20:25;91494.09;;;2.65;100.00
59274;BME280;45044;41.572;24.730;2023-04-09T00:22:52;91483.03;;;2.56;100.00
59274;BME280;45044;41.572;24.730;2023-04-09T00:25:20;91484.28;;;2.49;100.00
59274;BME280;45044;41.572;24.730;2023-04-09T00:27:46;91493.59;;;2.50;100.00
59274;BME280;45044;41.572;24.730;2023-04-09T00:30:13;91493.41;;;2.34;100.00
59274;BME280;45044;41.572;24.730;2023-04-09T00:32:40;91501.06;;;2.31;100.00
59274;BME280;45044;41.572;24.730;2023-04-09T00:35:07;91497.06;;;2.33;100.00
59274;BME280;45044;41.572;24.730;2023-04-09T00:37:35;91498.78;;;2.29;100.00
59274;BME280;45044;41.572;24.730;2023-04-09T00:40:04;91507.44;;;2.12;100.00
59274;BME280;45044;41.572;24.730;2023-04-09T00:42:32;91504.25;;;1.85;100.00
59274;BME280;45044;41.572;24.730;2023-04-09T00:44:59;91501.19;;;1.83;100.00
59274;BME280;45044;41.572;24.730;2023-04-09T00:47:26;91485.50;;;1.79;100.00
59274;BME280;45044;41.572;24.730;2023-04-09T00:49:54;91502.31;;;1.73;100.00
59274;BME280;45044;41.572;24.730;2023-04-09T00:52:21;91503.97;;;1.77;100.00
59274;BME280;45044;41.572;24.730;2023-04-09T00:54:50;91499.19;;;1.88;100.00
59274;BME280;45044;41.572;24.730;2023-04-09T00:57:18;91499.31;;;1.92;100.00
59274;BME280;45044;41.572;24.730;2023-04-09T00:59:45;91499.59;;;1.99;100.00
59274;BME280;45044;41.572;24.730;2023-04-09T01:02:12;91502.25;;;2.12;100.00
59274;BME280;45044;41.572;24.730;2023-04-09T01:04:40;91503.03;;;2.12;100.00
59274;BME280;45044;41.572;24.730;2023-04-09T01:07:12;91504.09;;;2.11;100.00
59274;BME280;45044;41.572;24.730;2023-04-09T01:09:49;91500.09;;;2.14;100.00
59274;BME280;45044;41.572;24.730;2023-04-09T01:12:32;91496.53;;;1.97;100.00
59274;BME280;45044;41.572;24.730;2023-04-09T01:15:06;91508.44;;;1.68;100.00
59274;BME280;45044;41.572;24.730;2023-04-09T01:17:55;91503.25;;;1.68;100.00
59274;BME280;45044;41.572;24.730;2023-04-09T01:20:59;91498.34;;;1.75;100.00
59274;BME280;45044;41.572;24.730;2023-04-09T01:23:42;91507.53;;;1.64;100.00
59274;BME280;45044;41.572;24.730;2023-04-09T01:26:39;91515.66;;;1.53;100.00
59274;BME280;45044;41.572;24.730;2023-04-09T01:29:10;91514.44;;;1.60;100.00
59274;BME280;45044;41.572;24.730;2023-04-09T01:31:38;91514.47;;;1.51;100.00
59274;BME280;45044;41.572;24.730;2023-04-09T01:34:07;91518.22;;;1.62;100.00
59274;BME280;45044;41.572;24.730;2023-04-09T01:36:36;91509.94;;;1.78;100.00
59274;BME280;45044;41.572;24.730;2023-04-09T01:39:05;91511.84;;;1.90;100.00
59274;BME280;45044;41.572;24.730;2023-04-09T01:41:33;91511.19;;;1.93;100.00
59274;BME280;45044;41.572;24.730;2023-04-09T01:44:11;91508.22;;;1.82;100.00
59274;BME280;45044;41.572;24.730;2023-04-09T01:46:39;91509.09;;;1.86;100.00
59274;BME280;45044;41.572;24.730;2023-04-09T01:49:06;91511.25;;;1.84;100.00
59274;BME280;45044;41.572;24.730;2023-04-09T01:51:33;91520.75;;;1.71;100.00
59274;BME280;45044;41.572;24.730;2023-04-09T01:54:00;91516.22;;;1.68;100.00
59274;BME280;45044;41.572;24.730;2023-04-09T01:56:27;91515.03;;;1.57;100.00
59274;BME280;45044;41.572;24.730;2023-04-09T01:58:53;91513.63;;;1.68;100.00
59274;BME280;45044;41.572;24.730;2023-04-09T02:01:32;91502.75;;;1.75;100.00
59274;BME280;45044;41.572;24.730;2023-04-09T02:04:04;91516.22;;;1.68;100.00
59274;BME280;45044;41.572;24.730;2023-04-09T02:06:58;91516.22;;;1.68;100.00
59274;BME280;45044;41.572;24.730;2023-04-09T02:09:31;91515.50;;;1.89;100.00
59274;BME280;45044;41.572;24.730;2023-04-09T02:12:02;91510.47;;;1.93;100.00
59274;BME280;45044;41.572;24.730;2023-04-09T02:14:31;91510.34;;;1.80;100.00
59274;BME280;45044;41.572;24.730;2023-04-09T02:16:58;91503.75;;;1.91;100.00
59274;BME280;45044;41.572;24.730;2023-04-09T02:19:43;91521.88;;;1.61;100.00
59274;BME280;45044;41.572;24.730;2023-04-09T02:22:11;91516.22;;;1.68;100.00
59274;BME280;45044;41.572;24.730;2023-04-09T02:24:38;91520.50;;;1.64;100.00
59274;BME280;45044;41.572;24.730;2023-04-09T02:27:08;91477.88;;;1.52;100.00
59274;BME280;45044;41.572;24.730;2023-04-09T02:29:35;91516.53;;;1.66;100.00
59274;BME280;45044;41.572;24.730;2023-04-09T02:32:01;91512.53;;;1.69;100.00
59274;BME280;45044;41.572;24.730;2023-04-09T02:34:28;91515.38;;;1.85;100.00
59274;BME280;45044;41.572;24.730;2023-04-09T02:36:55;91514.25;;;1.95;100.00
59274;BME280;45044;41.572;24.730;2023-04-09T02:39:23;91511.06;;;1.89;100.00
59274;BME280;45044;41.572;24.730;2023-04-09T02:41:49;91515.41;;;2.07;100.00
59274;BME280;45044;41.572;24.730;2023-04-09T02:44:16;91518.78;;;1.98;100.00
59274;BME280;45044;41.572;24.730;2023-04-09T02:46:44;91504.78;;;1.99;100.00
59274;BME280;45044;41.572;24.730;2023-04-09T02:49:11;91514.69;;;1.97;100.00
59274;BME280;45044;41.572;24.730;2023-04-09T02:51:38;91505.22;;;2.01;100.00
59274;BME280;45044;41.572;24.730;2023-04-09T02:54:05;91509.31;;;2.02;100.00
59274;BME280;45044;41.572;24.730;2023-04-09T02:56:31;91504.41;;;2.10;100.00
59274;BME280;45044;41.572;24.730;2023-04-09T02:58:58;91509.22;;;2.20;100.00
59274;BME280;45044;41.572;24.730;2023-04-09T03:01:25;91504.41;;;2.31;100.00
59274;BME280;45044;41.572;24.730;2023-04-09T03:03:52;91498.59;;;2.34;100.00
59274;BME280;45044;41.572;24.730;2023-04-09T03:06:21;91513.41;;;2.34;100.00
59274;BME280;45044;41.572;24.730;2023-04-09T03:08:47;91511.38;;;2.39;100.00
59274;BME280;45044;41.572;24.730;2023-04-09T03:11:14;91508.72;;;2.48;100.00
59274;BME280;45044;41.572;24.730;2023-04-09T03:13:41;91508.34;;;2.59;100.00
59274;BME280;45044;41.572;24.730;2023-04-09T03:16:09;91511.75;;;2.50;100.00
59274;BME280;45044;41.572;24.730;2023-04-09T03:18:36;91511.75;;;2.50;100.00
59274;BME280;45044;41.572;24.730;2023-04-09T03:21:06;91511.38;;;2.61;100.00
59274;BME280;45044;41.572;24.730;2023-04-09T03:23:33;91507.19;;;2.47;100.00
59274;BME280;45044;41.572;24.730;2023-04-09T03:26:04;91506.69;;;2.54;100.00
59274;BME280;45044;41.572;24.730;2023-04-09T03:28:41;91520.69;;;2.41;100.00
59274;BME280;45044;41.572;24.730;2023-04-09T03:31:09;91503.22;;;2.29;100.00
59274;BME280;45044;41.572;24.730;2023-04-09T03:33:36;91516.31;;;2.54;100.00
59274;BME280;45044;41.572;24.730;2023-04-09T03:36:03;91508.34;;;2.59;100.00
59274;BME280;45044;41.572;24.730;2023-04-09T03:38:29;91508.38;;;2.71;100.00
59274;BME280;45044;41.572;24.730;2023-04-09T03:40:56;91517.19;;;2.79;100.00
59274;BME280;45044;41.572;24.730;2023-04-09T03:43:23;91515.22;;;2.76;100.00
59274;BME280;45044;41.572;24.730;2023-04-09T03:45:50;91512.47;;;2.60;100.00
59274;BME280;45044;41.572;24.730;2023-04-09T03:48:16;91506.31;;;2.65;100.00
59274;BME280;45044;41.572;24.730;2023-04-09T03:50:43;91510.94;;;2.59;100.00
59274;BME280;45044;41.572;24.730;2023-04-09T03:53:10;91512.72;;;2.67;100.00
59274;BME280;45044;41.572;24.730;2023-04-09T03:55:36;91508.59;;;2.66;100.00
59274;BME280;45044;41.572;24.730;2023-04-09T03:58:03;91510.94;;;2.59;100.00
59274;BME280;45044;41.572;24.730;2023-04-09T04:00:30;91520.50;;;2.67;100.00
59274;BME280;45044;41.572;24.730;2023-04-09T04:02:57;91522.06;;;2.81;100.00
59274;BME280;45044;41.572;24.730;2023-04-09T04:05:24;91522.28;;;2.88;100.00
59274;BME280;45044;41.572;24.730;2023-04-09T04:07:54;91526.84;;;2.91;100.00
59274;BME280;45044;41.572;24.730;2023-04-09T04:10:21;91526.03;;;2.99;100.00
59274;BME280;45044;41.572;24.730;2023-04-09T04:12:48;91498.38;;;2.82;100.00
59274;BME280;45044;41.572;24.730;2023-04-09T04:15:14;91531.22;;;2.99;100.00
59274;BME280;45044;41.572;24.730;2023-04-09T04:17:41;91528.81;;;2.94;100.00
59274;BME280;45044;41.572;24.730;2023-04-09T04:20:08;91528.81;;;2.94;100.00
59274;BME280;45044;41.572;24.730;2023-04-09T04:22:35;91532.81;;;2.92;100.00
59274;BME280;45044;41.572;24.730;2023-04-09T04:25:03;91534.19;;;2.89;100.00
59274;BME280;45044;41.572;24.730;2023-04-09T04:27:30;91521.75;;;2.61;100.00
59274;BME280;45044;41.572;24.730;2023-04-09T04:29:57;91525.69;;;2.67;100.00
59274;BME280;45044;41.572;24.730;2023-04-09T04:32:24;91523.72;;;2.64;100.00
59274;BME280;45044;41.572;24.730;2023-04-09T04:34:51;91536.06;;;2.46;100.00
59274;BME280;45044;41.572;24.730;2023-04-09T04:37:18;91529.88;;;2.59;100.00
59274;BME280;45044;41.572;24.730;2023-04-09T04:39:45;91529.09;;;2.59;100.00
59274;BME280;45044;41.572;24.730;2023-04-09T04:42:12;91527.66;;;2.70;100.00
59274;BME280;45044;41.572;24.730;2023-04-09T04:44:39;91526.81;;;2.79;100.00
59274;BME280;45044;41.572;24.730;2023-04-09T04:47:05;91537.19;;;2.79;100.00
59274;BME280;45044;41.572;24.730;2023-04-09T04:49:32;91529.97;;;2.84;100.00
59274;BME280;45044;41.572;24.730;2023-04-09T04:51:59;91530.56;;;3.03;100.00
59274;BME280;45044;41.572;24.730;2023-04-09T04:54:26;91533.88;;;3.25;100.00
59274;BME280;45044;41.572;24.730;2023-04-09T04:56:52;91534.22;;;3.35;100.00
59274;BME280;45044;41.572;24.730;2023-04-09T04:59:19;91532.75;;;3.47;100.00
59274;BME280;45044;41.572;24.730;2023-04-09T05:01:46;91517.81;;;3.69;100.00
59274;BME280;45044;41.572;24.730;2023-04-09T05:04:13;91532.66;;;3.93;100.00
59274;BME280;45044;41.572;24.730;2023-04-09T05:06:40;91520.75;;;3.92;100.00
59274;BME280;45044;41.572;24.730;2023-04-09T05:09:09;91528.09;;;4.15;100.00
59274;BME280;45044;41.572;24.730;2023-04-09T05:11:36;91537.06;;;4.43;100.00
59274;BME280;45044;41.572;24.730;2023-04-09T05:14:03;91532.38;;;4.61;100.00
59274;BME280;45044;41.572;24.730;2023-04-09T05:16:31;91535.69;;;4.74;100.00
59274;BME280;45044;41.572;24.730;2023-04-09T05:18:58;91534.66;;;4.91;100.00
59274;BME280;45044;41.572;24.730;2023-04-09T05:21:25;91534.59;;;5.04;100.00
59274;BME280;45044;41.572;24.730;2023-04-09T05:23:53;91540.38;;;4.97;100.00
59274;BME280;45044;41.572;24.730;2023-04-09T05:26:20;91539.56;;;5.54;100.00
59274;BME280;45044;41.572;24.730;2023-04-09T05:28:48;91546.22;;;6.32;100.00
59274;BME280;45044;41.572;24.730;2023-04-09T05:31:15;91542.13;;;6.91;100.00
59274;BME280;45044;41.572;24.730;2023-04-09T05:33:44;91545.50;;;7.11;100.00
59274;BME280;45044;41.572;24.730;2023-04-09T05:36:15;91543.97;;;7.50;100.00
59274;BME280;45044;41.572;24.730;2023-04-09T05:38:44;91542.94;;;8.05;100.00
59274;BME280;45044;41.572;24.730;2023-04-09T05:41:12;91519.53;;;8.16;100.00
59274;BME280;45044;41.572;24.730;2023-04-09T05:43:39;91537.16;;;8.43;100.00
59274;BME280;45044;41.572;24.730;2023-04-09T05:46:06;91546.63;;;8.82;100.00
59274;BME280;45044;41.572;24.730;2023-04-09T05:48:35;91537.44;;;10.13;100.00
59274;BME280;45044;41.572;24.730;2023-04-09T05:51:02;91533.00;;;10.25;100.00
59274;BME280;45044;41.572;24.730;2023-04-09T05:53:30;91538.47;;;10.50;100.00
59274;BME280;45044;41.572;24.730;2023-04-09T05:55:57;91537.56;;;10.35;100.00
59274;BME280;45044;41.572;24.730;2023-04-09T05:58:24;91530.69;;;10.12;100.00
59274;BME280;45044;41.572;24.730;2023-04-09T06:00:51;91537.78;;;10.12;100.00
59274;BME280;45044;41.572;24.730;2023-04-09T06:03:18;91541.44;;;10.52;100.00
59274;BME280;45044;41.572;24.730;2023-04-09T06:05:46;91538.22;;;10.74;100.00
59274;BME280;45044;41.572;24.730;2023-04-09T06:08:13;91537.00;;;11.79;100.00
59274;BME280;45044;41.572;24.730;2023-04-09T06:10:42;91537.31;;;11.33;100.00
59274;BME280;45044;41.572;24.730;2023-04-09T06:13:09;91535.53;;;13.59;81.90
59274;BME280;45044;41.572;24.730;2023-04-09T06:15:37;91540.06;;;14.61;71.36
59274;BME280;45044;41.572;24.730;2023-04-09T06:18:05;91541.44;;;15.47;64.52
59274;BME280;45044;41.572;24.730;2023-04-09T06:20:32;91542.47;;;15.21;61.61
59274;BME280;45044;41.572;24.730;2023-04-09T06:22:59;91550.84;;;14.39;58.69
59274;BME280;45044;41.572;24.730;2023-04-09T06:25:27;91543.22;;;13.24;61.04
59274;BME280;45044;41.572;24.730;2023-04-09T06:27:54;91554.75;;;12.37;61.84
59274;BME280;45044;41.572;24.730;2023-04-09T06:30:22;91549.41;;;12.73;59.75
59274;BME280;45044;41.572;24.730;2023-04-09T06:32:50;91538.66;;;13.32;61.03
59274;BME280;45044;41.572;24.730;2023-04-09T06:35:21;91541.00;;;13.15;59.70
59274;BME280;45044;41.572;24.730;2023-04-09T06:37:47;91549.47;;;12.33;56.71
59274;BME280;45044;41.572;24.730;2023-04-09T06:40:15;91555.25;;;13.36;59.67
59274;BME280;45044;41.572;24.730;2023-04-09T06:42:42;91542.47;;;13.98;52.78
59274;BME280;45044;41.572;24.730;2023-04-09T06:45:10;91544.41;;;14.40;51.41
59274;BME280;45044;41.572;24.730;2023-04-09T06:47:37;91546.19;;;15.28;51.08
59274;BME280;45044;41.572;24.730;2023-04-09T06:50:04;91538.16;;;15.04;50.04
59274;BME280;45044;41.572;24.730;2023-04-09T06:52:32;91537.34;;;14.68;48.55
59274;BME280;45044;41.572;24.730;2023-04-09T06:54:59;91532.16;;;14.57;49.02
59274;BME280;45044;41.572;24.730;2023-04-09T06:57:26;91546.88;;;15.01;47.98
59274;BME280;45044;41.572;24.730;2023-04-09T06:59:57;91548.66;;;15.11;48.31
59274;BME280;45044;41.572;24.730;2023-04-09T07:02:24;91542.22;;;15.43;47.78
59274;BME280;45044;41.572;24.730;2023-04-09T07:04:51;91540.41;;;15.68;46.25
59274;BME280;45044;41.572;24.730;2023-04-09T07:07:21;91543.34;;;15.74;45.59
59274;BME280;45044;41.572;24.730;2023-04-09T07:09:52;91540.91;;;15.28;47.84
59274;BME280;45044;41.572;24.730;2023-04-09T07:12:26;91534.38;;;16.67;45.50
59274;BME280;45044;41.572;24.730;2023-04-09T07:15:01;91542.94;;;16.99;46.82
59274;BME280;45044;41.572;24.730;2023-04-09T07:17:29;91513.56;;;16.42;44.68
59274;BME280;45044;41.572;24.730;2023-04-09T07:19:57;91541.44;;;14.77;47.91
59274;BME280;45044;41.572;24.730;2023-04-09T07:22:25;91532.69;;;15.18;48.77
59274;BME280;45044;41.572;24.730;2023-04-09T07:24:52;91536.44;;;15.80;45.47
59274;BME280;45044;41.572;24.730;2023-04-09T07:29:47;91539.84;;;14.44;47.45
59274;BME280;45044;41.572;24.730;2023-04-09T07:32:14;91531.78;;;13.56;49.52
59274;BME280;45044;41.572;24.730;2023-04-09T07:34:44;91525.81;;;14.47;48.61
59274;BME280;45044;41.572;24.730;2023-04-09T07:37:11;91509.66;;;13.24;49.37
59274;BME280;45044;41.572;24.730;2023-04-09T07:39:38;91530.78;;;13.92;49.11
59274;BME280;45044;41.572;24.730;2023-04-09T07:42:05;91530.00;;;13.99;48.15
59274;BME280;45044;41.572;24.730;2023-04-09T07:44:35;91528.13;;;14.42;49.04
59274;BME280;45044;41.572;24.730;2023-04-09T07:47:06;91527.53;;;13.73;49.43
59274;BME280;45044;41.572;24.730;2023-04-09T07:49:35;91528.00;;;12.34;51.58
59274;BME280;45044;41.572;24.730;2023-04-09T07:52:02;91526.41;;;13.71;50.16
59274;BME280;45044;41.572;24.730;2023-04-09T07:54:29;91527.13;;;12.89;51.25
59274;BME280;45044;41.572;24.730;2023-04-09T07:56:59;91526.91;;;14.08;49.60
59274;BME280;45044;41.572;24.730;2023-04-09T07:59:29;91528.84;;;14.00;49.74
59274;BME280;45044;41.572;24.730;2023-04-09T08:01:57;91518.97;;;13.47;50.48
59274;BME280;45044;41.572;24.730;2023-04-09T08:04:25;91519.13;;;13.11;53.29
59274;BME280;45044;41.572;24.730;2023-04-09T08:07:02;91532.00;;;12.98;52.87
59274;BME280;45044;41.572;24.730;2023-04-09T08:09:29;91524.59;;;11.68;55.09
59274;BME280;45044;41.572;24.730;2023-04-09T08:11:56;91532.84;;;12.65;51.79
59274;BME280;45044;41.572;24.730;2023-04-09T08:14:24;91516.34;;;12.43;53.25
59274;BME280;45044;41.572;24.730;2023-04-09T08:16:50;91524.63;;;12.08;53.90
59274;BME280;45044;41.572;24.730;2023-04-09T08:19:17;91532.88;;;12.47;53.22
59274;BME280;45044;41.572;24.730;2023-04-09T08:21:45;91530.22;;;11.89;54.23
59274;BME280;45044;41.572;24.730;2023-04-09T08:24:14;91534.28;;;11.35;58.60
59274;BME280;45044;41.572;24.730;2023-04-09T08:26:41;91541.84;;;11.55;57.75
59274;BME280;45044;41.572;24.730;2023-04-09T08:29:09;91538.44;;;11.47;56.67
59274;BME280;45044;41.572;24.730;2023-04-09T08:31:37;91544.03;;;11.27;61.21
59274;BME280;45044;41.572;24.730;2023-04-09T08:34:05;91543.34;;;11.41;62.45
59274;BME280;45044;41.572;24.730;2023-04-09T08:36:32;91539.19;;;11.36;59.78
59274;BME280;45044;41.572;24.730;2023-04-09T08:39:01;91546.28;;;11.18;58.85
59274;BME280;45044;41.572;24.730;2023-04-09T08:41:28;91545.81;;;10.34;58.00
59274;BME280;45044;41.572;24.730;2023-04-09T08:43:56;91549.19;;;10.34;61.11
59274;BME280;45044;41.572;24.730;2023-04-09T08:46:25;91534.75;;;11.66;57.13
59274;BME280;45044;41.572;24.730;2023-04-09T08:48:53;91533.97;;;11.58;53.85
59274;BME280;45044;41.572;24.730;2023-04-09T08:51:22;91524.88;;;13.77;52.00
59274;BME280;45044;41.572;24.730;2023-04-09T08:53:57;91521.59;;;12.06;52.34
59274;BME280;45044;41.572;24.730;2023-04-09T08:56:26;91529.41;;;11.33;53.59
59274;BME280;45044;41.572;24.730;2023-04-09T08:58:54;91540.53;;;10.86;58.02
59274;BME280;45044;41.572;24.730;2023-04-09T09:01:26;91533.69;;;10.78;59.25
59274;BME280;45044;41.572;24.730;2023-04-09T09:04:08;91515.03;;;11.12;55.79
59274;BME280;45044;41.572;24.730;2023-04-09T09:06:40;91528.88;;;10.87;53.91
59274;BME280;45044;41.572;24.730;2023-04-09T09:09:12;91511.81;;;11.74;56.49
59274;BME280;45044;41.572;24.730;2023-04-09T09:11:41;91514.06;;;12.01;53.19
59274;BME280;45044;41.572;24.730;2023-04-09T09:14:10;91506.03;;;11.10;55.10
59274;BME280;45044;41.572;24.730;2023-04-09T09:16:38;91509.28;;;10.74;54.82
59274;BME280;45044;41.572;24.730;2023-04-09T09:22:00;91507.66;;;11.80;55.01
59274;BME280;45044;41.572;24.730;2023-04-09T09:24:27;91507.25;;;12.51;53.57
59274;BME280;45044;41.572;24.730;2023-04-09T09:26:54;91501.06;;;13.05;52.28
59274;BME280;45044;41.572;24.730;2023-04-09T09:29:23;91505.78;;;12.39;52.30
59274;BME280;45044;41.572;24.730;2023-04-09T09:31:51;91506.56;;;12.10;51.44
59274;BME280;45044;41.572;24.730;2023-04-09T09:34:23;91493.00;;;11.97;52.58
59274;BME280;45044;41.572;24.730;2023-04-09T09:36:50;91492.63;;;11.84;51.71
59274;BME280;45044;41.572;24.730;2023-04-09T09:39:17;91482.03;;;11.26;52.09
59274;BME280;45044;41.572;24.730;2023-04-09T09:41:45;91494.66;;;10.87;52.02
59274;BME280;45044;41.572;24.730;2023-04-09T09:44:29;91486.09;;;11.12;52.43
59274;BME280;45044;41.572;24.730;2023-04-09T09:46:57;91482.09;;;11.66;52.67
59274;BME280;45044;41.572;24.730;2023-04-09T09:49:24;91486.22;;;11.93;51.76
59274;BME280;45044;41.572;24.730;2023-04-09T09:51:52;91482.09;;;12.21;50.63
59274;BME280;45044;41.572;24.730;2023-04-09T09:54:24;91482.47;;;11.72;51.80
59274;BME280;45044;41.572;24.730;2023-04-09T09:56:54;91484.72;;;11.62;48.76
59274;BME280;45044;41.572;24.730;2023-04-09T09:59:25;91478.56;;;11.07;52.24
59274;BME280;45044;41.572;24.730;2023-04-09T10:01:58;91480.91;;;11.42;49.26
59274;BME280;45044;41.572;24.730;2023-04-09T10:04:28;91481.28;;;11.36;51.78
59274;BME280;45044;41.572;24.730;2023-04-09T10:06:56;91483.16;;;11.40;51.67
59274;BME280;45044;41.572;24.730;2023-04-09T10:09:25;91480.56;;;11.69;54.07
59274;BME280;45044;41.572;24.730;2023-04-09T10:11:53;91469.28;;;11.68;52.47
59274;BME280;45044;41.572;24.730;2023-04-09T10:14:21;91471.16;;;11.68;57.35
59274;BME280;45044;41.572;24.730;2023-04-09T10:16:48;91470.00;;;11.43;53.47
59274;BME280;45044;41.572;24.730;2023-04-09T10:19:15;91462.75;;;10.96;53.64
59274;BME280;45044;41.572;24.730;2023-04-09T10:22:16;91471.75;;;10.84;52.93
59274;BME280;45044;41.572;24.730;2023-04-09T10:24:43;91471.75;;;10.84;51.81
59274;BME280;45044;41.572;24.730;2023-04-09T10:27:12;91472.53;;;10.88;51.66
59274;BME280;45044;41.572;24.730;2023-04-09T10:29:44;91459.84;;;11.45;56.40
59274;BME280;45044;41.572;24.730;2023-04-09T10:32:11;91457.56;;;12.39;49.26
59274;BME280;45044;41.572;24.730;2023-04-09T10:34:40;91443.31;;;11.78;50.28
59274;BME280;45044;41.572;24.730;2023-04-09T10:37:08;91450.09;;;11.90;51.69
59274;BME280;45044;41.572;24.730;2023-04-09T10:39:42;91448.56;;;11.89;52.71
59274;BME280;45044;41.572;24.730;2023-04-09T10:42:14;91452.66;;;12.48;50.28
59274;BME280;45044;41.572;24.730;2023-04-09T10:44:41;91453.66;;;12.87;50.68
59274;BME280;45044;41.572;24.730;2023-04-09T10:47:09;91453.06;;;12.47;48.94
59274;BME280;45044;41.572;24.730;2023-04-09T10:52:08;91439.53;;;11.35;50.72
59274;BME280;45044;41.572;24.730;2023-04-09T10:54:41;91439.94;;;11.70;53.82
59274;BME280;45044;41.572;24.730;2023-04-09T10:57:19;91441.41;;;12.33;53.88
59274;BME280;45044;41.572;24.730;2023-04-09T10:59:52;91445.59;;;11.50;49.02
59274;BME280;45044;41.572;24.730;2023-04-09T11:07:46;91425.25;;;11.87;51.43
59274;BME280;45044;41.572;24.730;2023-04-09T11:10:20;91421.53;;;11.55;50.49
59274;BME280;45044;41.572;24.730;2023-04-09T11:12:48;91427.16;;;11.86;55.49
59274;BME280;45044;41.572;24.730;2023-04-09T11:15:20;91420.38;;;11.74;54.48
59274;BME280;45044;41.572;24.730;2023-04-09T11:17:47;91419.97;;;12.20;50.88
59274;BME280;45044;41.572;24.730;2023-04-09T11:20:16;91423.75;;;11.97;53.54
59274;BME280;45044;41.572;24.730;2023-04-09T11:22:45;91423.00;;;11.56;50.22
59274;BME280;45044;41.572;24.730;2023-04-09T11:25:29;91404.56;;;11.16;54.19
59274;BME280;45044;41.572;24.730;2023-04-09T11:27:57;91416.25;;;11.41;52.79
59274;BME280;45044;41.572;24.730;2023-04-09T11:30:24;91410.88;;;10.82;51.39
59274;BME280;45044;41.572;24.730;2023-04-09T11:32:51;91417.97;;;10.67;53.12
59274;BME280;45044;41.572;24.730;2023-04-09T11:35:20;91413.56;;;11.00;56.53
59274;BME280;45044;41.572;24.730;2023-04-09T11:37:48;91413.19;;;11.13;55.15
59274;BME280;45044;41.572;24.730;2023-04-09T11:40:23;91401.56;;;11.25;51.94
59274;BME280;45044;41.572;24.730;2023-04-09T11:42:52;91423.38;;;11.44;52.21
59274;BME280;45044;41.572;24.730;2023-04-09T11:45:22;91404.97;;;11.36;51.60
59274;BME280;45044;41.572;24.730;2023-04-09T11:47:50;91404.97;;;11.40;51.98
59274;BME280;45044;41.572;24.730;2023-04-09T11:50:18;91410.19;;;11.18;51.76
59274;BME280;45044;41.572;24.730;2023-04-09T11:52:45;91413.91;;;10.92;51.30
59274;BME280;45044;41.572;24.730;2023-04-09T11:55:26;91410.09;;;10.74;51.78
59274;BME280;45044;41.572;24.730;2023-04-09T11:57:57;91407.84;;;10.76;52.46
59274;BME280;45044;41.572;24.730;2023-04-09T12:00:28;91397.44;;;10.13;53.54
59274;BME280;45044;41.572;24.730;2023-04-09T12:03:01;91401.81;;;10.58;54.92
59274;BME280;45044;41.572;24.730;2023-04-09T12:05:31;91405.44;;;10.38;55.24
59274;BME280;45044;41.572;24.730;2023-04-09T12:08:00;91397.69;;;10.68;54.77
59274;BME280;45044;41.572;24.730;2023-04-09T12:10:31;91407.53;;;10.93;55.32
59274;BME280;45044;41.572;24.730;2023-04-09T12:13:06;91395.91;;;11.08;56.43
59274;BME280;45044;41.572;24.730;2023-04-09T12:15:36;91394.75;;;10.95;56.48
59274;BME280;45044;41.572;24.730;2023-04-09T12:18:07;91403.47;;;11.35;54.19
59274;BME280;45044;41.572;24.730;2023-04-09T12:20:36;91394.00;;;10.98;55.18
59274;BME280;45044;41.572;24.730;2023-04-09T12:23:06;91396.69;;;11.42;57.07
59274;BME280;45044;41.572;24.730;2023-04-09T12:25:35;91399.31;;;11.23;54.28
59274;BME280;45044;41.572;24.730;2023-04-09T12:28:04;91396.69;;;11.27;55.77
59274;BME280;45044;41.572;24.730;2023-04-09T12:30:32;91388.78;;;11.23;56.40
59274;BME280;45044;41.572;24.730;2023-04-09T12:32:59;91392.16;;;11.17;56.64
59274;BME280;45044;41.572;24.730;2023-04-09T12:35:26;91389.50;;;10.98;54.40
59274;BME280;45044;41.572;24.730;2023-04-09T12:37:56;91388.75;;;10.98;56.18
59274;BME280;45044;41.572;24.730;2023-04-09T12:40:22;91400.75;;;10.84;56.91
59274;BME280;45044;41.572;24.730;2023-04-09T12:42:49;91390.63;;;10.86;56.71
59274;BME280;45044;41.572;24.730;2023-04-09T12:45:18;91389.03;;;10.63;61.22
59274;BME280;45044;41.572;24.730;2023-04-09T12:47:45;91383.44;;;10.76;62.33
59274;BME280;45044;41.572;24.730;2023-04-09T12:50:12;91390.59;;;10.79;59.13
59274;BME280;45044;41.572;24.730;2023-04-09T12:52:41;91386.78;;;10.58;58.27
59274;BME280;45044;41.572;24.730;2023-04-09T12:55:08;91389.69;;;10.38;59.71
59274;BME280;45044;41.572;24.730;2023-04-09T12:57:36;91384.44;;;10.42;60.64
59274;BME280;45044;41.572;24.730;2023-04-09T13:00:05;91384.06;;;10.47;59.67
59274;BME280;45044;41.572;24.730;2023-04-09T13:02:33;91391.19;;;10.39;62.27
59274;BME280;45044;41.572;24.730;2023-04-09T13:05:01;91368.59;;;10.24;58.99
59274;BME280;45044;41.572;24.730;2023-04-09T13:07:28;91378.38;;;10.27;62.13
59274;BME280;45044;41.572;24.730;2023-04-09T13:09:55;91379.84;;;10.21;59.20
59274;BME280;45044;41.572;24.730;2023-04-09T13:12:23;91379.88;;;10.28;59.89